Time;durP1;ratioP1;P1;durP2;ratioP2;P2;SDS_P1;SDS_P2;PMS_P1;PMS_P2;Temp;Humidity;BMP_temperature;BMP_pressure;BME280_temperature;BME280_humidity;BME280_pressure;Samples;Min_cycle;Max_cycle;Signal;HPM_P1;HPM_P2
2021/12/19 00:01:45;;;;;;;3.50;2.47;;;;;;;6.52;100.00;102976.81;6249263;28;20052;-75
2021/12/19 00:08:27;;;;;;;4.07;1.80;;;;;;;6.54;100.00;102980.28;6250467;28;20053;-75
2021/12/19 00:08:37;;;;;;;4.18;2.10;;;;;;;6.54;100.00;102973.34;6249829;28;20448;-76
2021/12/19 00:11:39;;;;;;;1.70;1.35;;;;;;;6.54;100.00;102970.72;6250172;28;20072;-76
2021/12/19 00:14:41;;;;;;;2.83;1.88;;;;;;;6.54;100.00;102965.50;6253688;28;20060;-76
2021/12/19 00:17:43;;;;;;;4.38;2.20;;;;;;;6.57;100.00;102962.88;6263452;28;20037;-76
2021/12/19 00:20:45;;;;;;;3.53;1.95;;;;;;;6.51;100.00;102957.66;6261600;28;20057;-76
2021/12/19 00:23:48;;;;;;;2.67;1.63;;;;;;;6.49;100.00;102953.31;6274783;28;20056;-76
2021/12/19 00:26:49;;;;;;;1.60;1.38;;;;;;;6.50;100.00;102957.69;6274748;28;20052;-75
2021/12/19 00:29:51;;;;;;;3.30;1.95;;;;;;;6.49;100.00;102950.69;6274293;28;20053;-75
2021/12/19 00:32:53;;;;;;;4.35;2.05;;;;;;;6.55;100.00;102942.88;6260911;28;20053;-76
2021/12/19 00:35:55;;;;;;;2.65;1.77;;;;;;;6.53;100.00;102948.06;6249631;28;20064;-75
2021/12/19 00:38:56;;;;;;;3.28;1.67;;;;;;;6.53;100.00;102939.38;6257941;28;20049;-75
2021/12/19 00:41:58;;;;;;;3.15;1.60;;;;;;;6.52;100.00;102938.50;6270932;28;20400;-76
2021/12/19 00:45:02;;;;;;;2.55;1.38;;;;;;;6.55;100.00;102938.50;6274581;28;20518;-76
2021/12/19 00:48:07;;;;;;;3.90;1.70;;;;;;;6.56;100.00;102921.97;6272969;28;20045;-76
2021/12/19 00:51:12;;;;;;;3.47;1.65;;;;;;;6.60;100.00;102918.47;6273922;28;20079;-75
2021/12/19 00:54:14;;;;;;;3.90;1.50;;;;;;;6.63;100.00;102917.56;6274168;28;20045;-76
2021/12/19 00:57:15;;;;;;;1.40;1.10;;;;;;;6.58;100.00;102909.75;6274207;28;20063;-76
2021/12/19 01:00:19;;;;;;;1.77;1.30;;;;;;;6.61;100.00;102907.13;6273906;28;20143;-76
2021/12/19 01:03:23;;;;;;;1.73;1.00;;;;;;;6.56;100.00;102903.66;6258535;28;20050;-75
2021/12/19 01:06:27;;;;;;;2.90;1.13;;;;;;;6.55;100.00;102893.25;6249083;28;20411;-76
2021/12/19 01:09:30;;;;;;;4.10;1.40;;;;;;;6.56;100.00;102888.00;6248847;28;20045;-76
2021/12/19 01:12:33;;;;;;;4.20;1.40;;;;;;;6.61;100.00;102882.75;6248734;28;20202;-76
2021/12/19 01:15:34;;;;;;;3.55;1.25;;;;;;;6.60;100.00;102888.88;6248816;28;20404;-76
2021/12/19 01:18:37;;;;;;;1.20;0.90;;;;;;;6.63;100.00;102883.63;6248920;28;20054;-75
2021/12/19 01:21:38;;;;;;;2.45;1.52;;;;;;;6.61;100.00;102885.38;6248647;28;20484;-76
2021/12/19 01:24:39;;;;;;;2.78;1.90;;;;;;;6.61;100.00;102878.41;6248801;28;20049;-76
2021/12/19 01:27:41;;;;;;;5.07;2.17;;;;;;;6.62;100.00;102874.03;6248666;28;20052;-75
2021/12/19 01:30:42;;;;;;;2.28;1.65;;;;;;;6.60;100.00;102874.06;6248464;28;20045;-76
2021/12/19 01:33:45;;;;;;;4.57;1.92;;;;;;;6.64;100.00;102868.84;6248215;28;20448;-76
2021/12/19 01:36:46;;;;;;;2.78;1.30;;;;;;;6.67;100.00;102880.13;6248253;28;20048;-76
2021/12/19 01:39:48;;;;;;;3.85;1.35;;;;;;;6.69;100.00;102861.84;6248404;28;20045;-76
2021/12/19 01:42:54;;;;;;;1.80;1.60;;;;;;;6.71;100.00;102868.78;6248253;28;20057;-75
2021/12/19 01:45:56;;;;;;;3.33;1.30;;;;;;;6.70;100.00;102861.84;6248129;28;20069;-76
2021/12/19 01:48:58;;;;;;;2.53;1.40;;;;;;;6.70;100.00;102864.44;6248107;28;20633;-76
2021/12/19 01:52:00;;;;;;;2.40;1.45;;;;;;;6.69;100.00;102857.50;6247929;28;20052;-75
2021/12/19 01:55:01;;;;;;;1.20;1.10;;;;;;;6.66;100.00;102854.88;6248026;28;20052;-76
2021/12/19 01:58:03;;;;;;;4.38;2.17;;;;;;;6.66;100.00;102854.00;6248068;28;20053;-75
2021/12/19 02:01:04;;;;;;;2.55;1.60;;;;;;;6.67;100.00;102847.91;6247214;28;20050;-76
2021/12/19 02:04:07;;;;;;;2.45;1.20;;;;;;;6.70;100.00;102845.28;6247636;28;20053;-76
2021/12/19 02:07:08;;;;;;;1.17;0.98;;;;;;;6.73;100.00;102837.47;6247604;28;20041;-76
2021/12/19 02:10:09;;;;;;;1.58;1.40;;;;;;;6.77;100.00;102840.06;6247355;28;20045;-76
2021/12/19 02:13:13;;;;;;;6.80;1.10;;;;;;;6.76;100.00;102842.66;6247238;28;20188;-75
2021/12/19 02:16:14;;;;;;;1.90;1.10;;;;;;;6.76;100.00;102829.59;6262488;28;20416;-76
2021/12/19 02:19:17;;;;;;;3.15;1.13;;;;;;;6.74;100.00;102840.06;6262468;28;20053;-76
2021/12/19 02:22:20;;;;;;;1.40;1.00;;;;;;;6.75;100.00;102830.47;6263414;28;20056;-75
2021/12/19 02:25:21;;;;;;;3.65;1.40;;;;;;;6.77;100.00;102829.59;6272173;28;20049;-75
2021/12/19 02:28:23;;;;;;;2.83;1.33;;;;;;;6.80;100.00;102820.84;6271832;28;20060;-74
2021/12/19 02:31:24;;;;;;;8.20;1.30;;;;;;;6.85;100.00;102817.34;6271937;28;20056;-75
2021/12/19 02:34:28;;;;;;;1.65;1.15;;;;;;;6.81;100.00;102814.75;6260755;28;20054;-76
2021/12/19 02:38:06;;;;;;;3.65;2.00;;;;;;;6.77;100.00;102800.00;6247400;28;20492;-76
2021/12/19 02:51:07;;;;;;;2.78;2.03;;;;;;;6.72;100.00;102780.81;6271454;28;20061;-76
2021/12/19 02:54:09;;;;;;;3.80;2.10;;;;;;;6.77;100.00;102784.31;6271916;28;20393;-76
2021/12/19 02:57:11;;;;;;;6.65;2.58;;;;;;;6.79;100.00;102790.38;6271621;28;20052;-75
2021/12/19 03:00:16;;;;;;;3.15;2.10;;;;;;;6.73;100.00;102793.91;6271452;28;20053;-76
2021/12/19 03:03:17;;;;;;;2.55;1.90;;;;;;;6.77;100.00;102789.53;6263736;28;20053;-76
2021/12/19 03:06:19;;;;;;;2.45;1.85;;;;;;;6.80;100.00;102790.38;6246736;28;20504;-76
2021/12/19 03:09:40;;;;;;;4.05;1.98;;;;;;;6.74;100.00;102782.56;6246765;28;20057;-76
2021/12/19 03:12:56;;;;;;;6.65;2.25;;;;;;;6.73;100.00;102782.59;6250060;28;20053;-76
2021/12/19 03:19:17;;;;;;;3.25;1.77;;;;;;;6.74;100.00;102768.63;6251868;28;20073;-75
2021/12/19 03:22:18;;;;;;;6.30;1.77;;;;;;;6.83;100.00;102773.81;6258630;28;20045;-75
2021/12/19 03:25:21;;;;;;;3.67;1.80;;;;;;;6.78;100.00;102760.78;6267041;28;20044;-75
2021/12/19 03:28:22;;;;;;;3.13;1.30;;;;;;;6.81;100.00;102804.28;6260446;28;20045;-75
2021/12/19 03:31:24;;;;;;;5.10;1.10;;;;;;;6.78;100.00;102754.69;6276248;28;20057;-74
2021/12/19 03:34:25;;;;;;;7.85;1.02;;;;;;;6.74;100.00;102768.63;6265101;28;20424;-74
2021/12/19 03:37:26;;;;;;;1.67;1.10;;;;;;;6.70;100.00;102761.69;6257103;28;20049;-75
2021/12/19 03:40:36;;;;;;;1.25;0.88;;;;;;;6.70;100.00;102756.47;6267894;28;20045;-77
2021/12/19 03:43:37;;;;;;;3.80;1.10;;;;;;;6.72;100.00;102759.91;6254163;28;20085;-75
2021/12/19 03:46:39;;;;;;;1.42;0.70;;;;;;;6.67;100.00;102762.56;6253692;28;20053;-74
2021/12/19 03:49:40;;;;;;;1.52;0.95;;;;;;;6.71;100.00;102760.81;6267300;28;20045;-74
2021/12/19 03:52:42;;;;;;;1.63;1.10;;;;;;;6.68;100.00;102750.38;6276078;28;20044;-74
2021/12/19 03:55:45;;;;;;;1.95;0.88;;;;;;;6.65;100.00;102743.41;6275661;28;20055;-75
2021/12/19 03:58:46;;;;;;;1.90;0.90;;;;;;;6.67;100.00;102743.41;6274642;28;20049;-75
2021/12/19 04:01:51;;;;;;;2.53;1.77;;;;;;;6.65;100.00;102747.78;6262564;28;20045;-75
2021/12/19 04:04:54;;;;;;;2.30;1.70;;;;;;;6.72;100.00;102736.41;6259953;28;20104;-75
2021/12/19 04:07:55;;;;;;;1.63;1.20;;;;;;;6.71;100.00;102730.31;6250470;28;20493;-75
2021/12/19 04:10:58;;;;;;;1.67;1.20;;;;;;;6.70;100.00;102723.34;6250257;28;20057;-75
2021/12/19 04:13:59;;;;;;;1.60;1.30;;;;;;;6.73;100.00;102723.34;6255428;28;20052;-74
2021/12/19 04:17:01;;;;;;;1.67;1.23;;;;;;;6.74;100.00;102725.09;6261346;28;20413;-75
2021/12/19 04:20:02;;;;;;;3.67;1.02;;;;;;;6.74;100.00;102725.09;6260761;28;20519;-75
2021/12/19 04:23:04;;;;;;;2.90;1.05;;;;;;;6.66;100.00;102715.53;6272561;28;20056;-75
2021/12/19 04:26:07;;;;;;;8.38;1.02;;;;;;;6.63;100.00;102719.03;6275067;28;20055;-75
2021/12/19 04:29:08;;;;;;;1.75;1.13;;;;;;;6.65;100.00;102711.22;6274714;28;20052;-75
2021/12/19 04:32:11;;;;;;;1.27;0.82;;;;;;;6.64;100.00;102712.09;6274950;28;20187;-77
2021/12/19 04:35:14;;;;;;;1.60;1.40;;;;;;;6.65;100.00;102704.22;6259797;28;20053;-75
2021/12/19 04:42:33;;;;;;;;;;;;;;;6.70;100.00;102699.84;6262435;28;20504;-75
2021/12/19 04:52:24;;;;;;;7.57;1.55;;;;;;;6.65;100.00;102691.16;6274615;28;20048;-76
2021/12/19 04:55:50;;;;;;;3.10;1.60;;;;;;;6.69;100.00;102697.25;6274338;28;20053;-75
2021/12/19 04:59:13;;;;;;;2.88;1.95;;;;;;;6.71;100.00;102690.25;6274076;28;20067;-76
2021/12/19 05:02:25;;;;;;;1.98;1.27;;;;;;;6.70;100.00;102692.00;6274014;28;20053;-75
2021/12/19 05:15:34;;;;;;;6.22;2.00;;;;;;;6.71;100.00;102679.81;6295139;28;20048;-75
2021/12/19 05:18:40;;;;;;;7.85;2.35;;;;;;;6.70;100.00;102685.91;6318419;28;20131;-75
2021/12/19 05:21:41;;;;;;;5.45;2.22;;;;;;;6.73;100.00;102685.91;6317907;28;20091;-75
2021/12/19 05:24:49;;;;;;;5.78;2.97;;;;;;;6.68;100.00;102672.00;6318331;28;20044;-76
2021/12/19 05:27:53;;;;;;;7.90;2.92;;;;;;;6.73;100.00;102685.91;6317774;28;20059;-75
2021/12/19 05:30:54;;;;;;;5.65;2.38;;;;;;;6.76;100.00;102670.19;6317757;28;20060;-75
2021/12/19 05:33:56;;;;;;;7.35;2.75;;;;;;;6.75;100.00;102681.53;6311813;28;20458;-75
2021/12/19 05:46:56;;;;;;;4.05;2.25;;;;;;;6.58;100.00;102661.59;6316460;28;20048;-75
2021/12/19 05:49:57;;;;;;;7.05;3.22;;;;;;;6.56;100.00;102665.97;6315133;28;20101;-75
2021/12/19 05:52:59;;;;;;;6.60;3.47;;;;;;;6.60;100.00;102685.09;6315145;28;20044;-75
2021/12/19 05:56:03;;;;;;;9.13;2.97;;;;;;;6.60;100.00;102685.09;6315345;28;20048;-75
2021/12/19 05:59:06;;;;;;;8.27;3.30;;;;;;;6.61;100.00;102674.63;6313268;28;20055;-76
2021/12/19 06:02:07;;;;;;;5.38;2.95;;;;;;;6.61;100.00;102665.94;6304528;28;20052;-76
2021/12/19 06:05:10;;;;;;;5.00;2.42;;;;;;;6.57;100.00;102656.38;6310388;28;20055;-76
2021/12/19 06:08:11;;;;;;;6.50;2.65;;;;;;;6.57;100.00;102657.25;6312808;28;20048;-77
2021/12/19 06:11:14;;;;;;;4.80;2.45;;;;;;;6.64;100.00;102652.00;6312684;28;20052;-76
2021/12/19 06:14:16;;;;;;;6.93;1.88;;;;;;;6.67;100.00;102658.06;6298342;28;20049;-76
2021/12/19 06:17:17;;;;;;;3.45;2.10;;;;;;;6.70;100.00;102658.03;6296180;28;20503;-75
2021/12/19 06:20:19;;;;;;;2.95;1.35;;;;;;;6.64;100.00;102647.63;6286627;28;20067;-76
2021/12/19 06:23:20;;;;;;;6.45;2.20;;;;;;;6.66;100.00;102645.00;6277716;28;20388;-75
2021/12/19 06:26:23;;;;;;;1.98;1.27;;;;;;;6.58;100.00;102640.69;6284462;28;20048;-76
2021/12/19 06:29:25;;;;;;;4.50;1.35;;;;;;;6.57;100.00;102638.09;6291787;28;20060;-76
2021/12/19 06:32:26;;;;;;;2.22;1.25;;;;;;;6.55;100.00;102629.41;6299322;28;20471;-76
2021/12/19 06:35:30;;;;;;;11.55;2.45;;;;;;;6.60;100.00;102640.69;6293117;28;20055;-76
2021/12/19 06:38:32;;;;;;;1.55;1.40;;;;;;;6.65;100.00;102632.84;6296354;28;20055;-76
2021/12/19 06:41:36;;;;;;;2.97;1.40;;;;;;;6.61;100.00;102627.63;6299236;28;20082;-77
2021/12/19 06:44:38;;;;;;;5.15;2.10;;;;;;;6.63;100.00;102632.81;6299201;28;20159;-75
2021/12/19 06:47:39;;;;;;;4.10;1.48;;;;;;;6.62;100.00;102636.31;6299314;28;20048;-76
2021/12/19 06:50:41;;;;;;;2.22;1.45;;;;;;;6.57;100.00;102623.28;6297021;28;20053;-76
2021/12/19 06:53:43;;;;;;;6.72;1.58;;;;;;;6.67;100.00;102621.47;6299293;28;20415;-76
2021/12/19 06:56:45;;;;;;;3.33;1.52;;;;;;;6.63;100.00;102609.31;6298878;28;20037;-75
2021/12/19 06:59:47;;;;;;;1.60;1.02;;;;;;;6.63;100.00;102611.91;6299101;28;20123;-75
2021/12/19 07:02:48;;;;;;;3.40;1.40;;;;;;;6.55;100.00;102601.56;6298881;28;20057;-76
2021/12/19 07:05:50;;;;;;;4.00;1.98;;;;;;;6.55;100.00;102601.56;6297039;28;20055;-76
2021/12/19 07:08:51;;;;;;;6.78;1.70;;;;;;;6.54;100.00;102605.03;6294073;28;20484;-76
2021/12/19 07:11:54;;;;;;;4.10;1.40;;;;;;;6.55;100.00;102600.69;6294004;28;20052;-77
2021/12/19 07:14:56;;;;;;;3.85;1.25;;;;;;;6.56;100.00;102586.75;6295619;28;20044;-76
2021/12/19 07:18:02;;;;;;;3.17;2.05;;;;;;;6.54;100.00;102593.69;6294191;28;20400;-77
2021/12/19 07:21:04;;;;;;;2.67;1.67;;;;;;;6.49;100.00;102596.34;6298394;28;20130;-77
2021/12/19 07:24:06;;;;;;;1.73;1.13;;;;;;;6.52;100.00;102592.84;6285792;28;20081;-76
2021/12/19 07:27:08;;;;;;;3.58;1.42;;;;;;;6.51;100.00;102584.16;6289029;28;20049;-75
2021/12/19 07:30:11;;;;;;;2.30;1.10;;;;;;;6.50;100.00;102574.59;6297028;28;20051;-77
2021/12/19 07:33:12;;;;;;;3.63;1.65;;;;;;;6.53;100.00;102569.34;6285913;28;20495;-77
2021/12/19 07:36:17;;;;;;;3.88;1.77;;;;;;;6.53;100.00;102581.53;6289879;28;20431;-76
2021/12/19 07:39:26;;;;;;;3.97;1.52;;;;;;;6.52;100.00;102585.03;6297796;28;20420;-77
2021/12/19 07:42:29;;;;;;;2.75;1.27;;;;;;;6.49;100.00;102572.84;6297968;28;20053;-76
2021/12/19 07:45:31;;;;;;;6.80;1.55;;;;;;;6.48;100.00;102584.16;6285281;28;20049;-77
2021/12/19 07:48:32;;;;;;;1.98;1.23;;;;;;;6.45;100.00;102579.00;6276815;28;20044;-77
2021/12/19 07:51:33;;;;;;;3.20;1.40;;;;;;;6.48;100.00;102572.88;6275119;28;20056;-77
2021/12/19 07:54:35;;;;;;;3.90;0.90;;;;;;;6.46;100.00;102569.41;6276336;28;20049;-77
2021/12/19 07:57:37;;;;;;;3.35;1.25;;;;;;;6.51;100.00;102570.25;6282668;28;20427;-77
2021/12/19 08:00:39;;;;;;;2.88;2.47;;;;;;;6.54;100.00;102572.81;6286551;28;20182;-77
2021/12/19 08:03:40;;;;;;;5.68;1.20;;;;;;;6.52;100.00;102574.56;6281808;28;20048;-77
2021/12/19 08:06:41;;;;;;;2.63;1.13;;;;;;;6.53;100.00;102568.47;6280811;28;20052;-78
2021/12/19 08:09:58;;;;;;;2.60;1.48;;;;;;;6.53;100.00;102558.03;6287646;28;20040;-77
2021/12/19 08:13:01;;;;;;;5.50;1.55;;;;;;;6.49;100.00;102556.31;6292032;28;20051;-77
2021/12/19 08:16:02;;;;;;;2.65;1.33;;;;;;;6.49;100.00;102558.91;6294778;28;20518;-76
2021/12/19 08:19:04;;;;;;;3.38;1.17;;;;;;;6.50;100.00;102550.22;6294499;28;20041;-77
2021/12/19 08:22:05;;;;;;;3.83;1.40;;;;;;;6.45;100.00;102546.75;6296889;28;20496;-77
2021/12/19 08:25:08;;;;;;;2.72;1.20;;;;;;;6.48;100.00;102549.34;6297218;28;20051;-77
2021/12/19 08:28:11;;;;;;;5.60;0.82;;;;;;;6.52;100.00;102551.94;6297040;28;20044;-77
2021/12/19 08:31:12;;;;;;;3.13;1.77;;;;;;;6.44;100.00;102556.34;6288905;28;20057;-77
2021/12/19 08:34:13;;;;;;;1.88;1.08;;;;;;;6.44;100.00;102548.50;6297126;28;20045;-77
2021/12/19 08:37:15;;;;;;;4.05;1.73;;;;;;;6.41;100.00;102551.16;6274411;28;20044;-77
2021/12/19 08:40:17;;;;;;;1.65;0.70;;;;;;;6.41;100.00;102551.16;6296117;28;20056;-77
2021/12/19 08:43:21;;;;;;;2.55;0.95;;;;;;;6.36;100.00;102550.31;6296595;28;20061;-77
2021/12/19 08:46:22;;;;;;;1.75;0.45;;;;;;;6.40;100.00;102551.16;6295229;28;20052;-77
2021/12/19 08:49:24;;;;;;;1.27;0.60;;;;;;;6.38;100.00;102548.56;6288901;28;20052;-77
2021/12/19 08:52:26;;;;;;;1.67;0.93;;;;;;;6.39;100.00;102544.19;6288434;28;20420;-78
2021/12/19 08:55:27;;;;;;;1.25;0.77;;;;;;;6.34;100.00;102541.63;6296441;28;20105;-78
2021/12/19 08:58:30;;;;;;;0.82;0.60;;;;;;;6.31;100.00;102549.47;6297338;28;20040;-78
2021/12/19 09:01:32;;;;;;;0.80;0.80;;;;;;;6.35;100.00;102545.97;6280672;28;20049;-79
2021/12/19 09:04:33;;;;;;;2.25;1.00;;;;;;;6.37;100.00;102551.19;6272479;28;20138;-78
2021/12/19 09:07:35;;;;;;;0.77;0.50;;;;;;;6.38;100.00;102551.16;6273152;28;20048;-78
2021/12/19 09:10:36;;;;;;;2.03;0.60;;;;;;;6.41;100.00;102547.69;6291309;28;20059;-78
2021/12/19 09:13:39;;;;;;;0.50;0.50;;;;;;;6.43;100.00;102544.16;6296635;28;20055;-77
2021/12/19 09:16:41;;;;;;;3.03;0.55;;;;;;;6.50;100.00;102543.25;6283684;28;20052;-76
2021/12/19 09:19:42;;;;;;;1.52;0.85;;;;;;;6.52;100.00;102544.09;6286778;28;20515;-78
2021/12/19 09:22:44;;;;;;;1.17;0.60;;;;;;;6.57;100.00;102549.28;6283049;28;20053;-78
2021/12/19 09:25:46;;;;;;;7.53;0.88;;;;;;;6.62;100.00;102542.28;6292322;28;20060;-78
2021/12/19 09:28:48;;;;;;;1.00;0.60;;;;;;;6.49;100.00;102538.03;6296047;28;20044;-78
2021/12/19 09:31:50;;;;;;;1.15;0.70;;;;;;;6.44;100.00;102538.06;6295819;28;20496;-78
2021/12/19 09:34:51;;;;;;;2.67;1.58;;;;;;;6.41;100.00;102548.53;6297016;28;20052;-79
2021/12/19 09:37:53;;;;;;;1.50;0.70;;;;;;;6.34;100.00;102536.41;6294846;28;20447;-78
2021/12/19 09:41:00;;;;;;;4.65;1.13;;;;;;;6.34;100.00;102541.63;6295916;28;20041;-78
2021/12/19 09:44:05;;;;;;;4.78;0.75;;;;;;;6.26;100.00;102536.44;6294272;28;20059;-78
2021/12/19 09:47:07;;;;;;;3.90;0.73;;;;;;;6.32;100.00;102532.94;6271760;28;20052;-77
2021/12/19 09:50:10;;;;;;;1.67;0.82;;;;;;;6.33;100.00;102527.69;6270403;28;20056;-77
2021/12/19 09:53:11;;;;;;;2.45;0.80;;;;;;;6.26;100.00;102520.78;6272030;28;20156;-77
2021/12/19 09:56:13;;;;;;;6.60;1.42;;;;;;;6.34;100.00;102520.72;6287285;28;20493;-78
2021/12/19 09:59:19;;;;;;;0.65;0.52;;;;;;;6.32;100.00;102515.53;6302006;28;20056;-78
2021/12/19 10:02:20;;;;;;;1.27;0.90;;;;;;;6.37;100.00;102506.81;6301183;28;20052;-78
2021/12/19 10:05:24;;;;;;;1.90;0.90;;;;;;;6.41;100.00;102498.06;6300794;28;20045;-77
2021/12/19 10:08:25;;;;;;;1.45;0.55;;;;;;;6.39;100.00;102505.91;6298477;28;20057;-77
2021/12/19 10:11:32;;;;;;;0.85;0.55;;;;;;;6.37;100.00;102512.03;6297355;28;20538;-77
2021/12/19 10:14:37;;;;;;;3.63;0.70;;;;;;;6.37;100.00;102501.56;6297712;28;20051;-75
2021/12/19 10:17:39;;;;;;;1.17;0.60;;;;;;;6.34;100.00;102499.84;6297318;28;20051;-77
2021/12/19 10:20:45;;;;;;;1.65;1.08;;;;;;;6.34;100.00;102494.63;6287012;28;20052;-77
2021/12/19 10:23:47;;;;;;;1.13;0.75;;;;;;;6.38;100.00;102493.72;6300252;28;20051;-77
2021/12/19 10:26:49;;;;;;;0.73;0.68;;;;;;;6.46;100.00;102498.91;6300403;28;20048;-77
2021/12/19 10:29:52;;;;;;;1.98;0.70;;;;;;;6.50;100.00;102492.78;6299315;28;20045;-76
2021/12/19 10:32:56;;;;;;;1.38;0.35;;;;;;;6.61;100.00;102489.16;6301656;28;20124;-77
2021/12/19 10:35:59;;;;;;;0.82;0.45;;;;;;;6.60;100.00;102474.38;6303136;28;20063;-77
2021/12/19 10:39:01;;;;;;;1.55;0.35;;;;;;;6.63;100.00;102470.84;6300280;28;20052;-77
2021/12/19 10:42:02;;;;;;;0.60;0.50;;;;;;;6.62;100.00;102469.13;6300517;28;20056;-77
2021/12/19 10:48:28;;;;;;;4.32;0.55;;;;;;;6.50;100.00;102457.06;6300772;28;20053;-76
2021/12/19 10:51:32;;;;;;;3.80;1.00;;;;;;;6.49;100.00;102460.53;6297643;28;20423;-77
2021/12/19 10:54:33;;;;;;;1.45;0.68;;;;;;;6.50;100.00;102454.47;6296931;28;20051;-77
2021/12/19 10:57:37;;;;;;;3.65;0.40;;;;;;;6.46;100.00;102450.13;6300450;28;20048;-77
2021/12/19 11:00:53;;;;;;;0.93;0.50;;;;;;;6.46;100.00;102446.66;6299882;28;20060;-77
2021/12/19 11:03:58;;;;;;;1.90;1.25;;;;;;;6.41;100.00;102453.69;6300319;28;20442;-79
2021/12/19 11:07:02;;;;;;;1.02;0.75;;;;;;;6.52;100.00;102430.94;6299576;28;20446;-77
2021/12/19 11:10:29;;;;;;;3.45;0.52;;;;;;;6.48;100.00;102429.22;6294083;28;20408;-76
2021/12/19 11:13:30;;;;;;;1.75;0.88;;;;;;;6.44;100.00;102427.50;6293691;28;20063;-77
2021/12/19 11:16:33;;;;;;;2.10;0.60;;;;;;;6.47;100.00;102425.75;6305208;28;20049;-76
2021/12/19 11:19:35;;;;;;;0.80;0.68;;;;;;;6.44;100.00;102419.69;6323571;28;20044;-76
2021/12/19 11:22:36;;;;;;;1.35;0.73;;;;;;;6.46;100.00;102410.09;6309849;28;20052;-76
2021/12/19 11:25:38;;;;;;;2.65;0.90;;;;;;;6.48;100.00;102401.34;6323348;28;20470;-76
2021/12/19 11:28:40;;;;;;;3.13;1.10;;;;;;;6.49;100.00;102397.84;6323612;28;20051;-76
2021/12/19 11:31:46;;;;;;;0.73;0.50;;;;;;;6.49;100.00;102391.78;6321149;28;20056;-77
2021/12/19 11:34:58;;;;;;;3.78;0.50;;;;;;;6.55;100.00;102394.34;6323674;28;20060;-77
2021/12/19 11:38:02;;;;;;;1.13;0.57;;;;;;;6.51;100.00;102396.13;6307730;28;20064;-76
2021/12/19 11:41:08;;;;;;;1.63;0.80;;;;;;;6.49;100.00;102392.63;6297757;28;20051;-77
2021/12/19 11:44:09;;;;;;;1.88;0.77;;;;;;;6.54;100.00;102385.66;6304681;28;20127;-76
2021/12/19 11:47:16;;;;;;;0.38;0.38;;;;;;;6.61;100.00;102375.97;6309537;28;20546;-77
2021/12/19 11:50:23;;;;;;;5.40;0.50;;;;;;;6.67;100.00;102365.47;6313270;28;20044;-76
2021/12/19 11:53:27;;;;;;;2.75;1.67;;;;;;;6.71;100.00;102364.53;6304910;28;20048;-77
2021/12/19 11:56:28;;;;;;;2.05;0.82;;;;;;;6.75;100.00;102366.25;6298696;28;20044;-77
2021/12/19 11:59:30;;;;;;;0.68;0.40;;;;;;;6.75;100.00;102352.31;6312866;28;20044;-77
2021/12/19 12:02:32;;;;;;;0.45;0.38;;;;;;;6.77;100.00;102358.41;6296926;28;20053;-76
2021/12/19 12:05:34;;;;;;;1.77;0.70;;;;;;;6.82;100.00;102354.00;6297293;28;20049;-77
2021/12/19 12:08:35;;;;;;;4.32;0.80;;;;;;;6.86;100.00;102343.47;6296784;28;20044;-77
2021/12/19 12:11:39;;;;;;;6.20;1.02;;;;;;;6.86;100.00;102346.09;6296734;28;20052;-77
2021/12/19 12:14:43;;;;;;;3.50;0.68;;;;;;;6.86;100.00;102335.66;6297531;28;20495;-77
2021/12/19 12:17:51;;;;;;;9.52;0.70;;;;;;;6.88;100.00;102338.22;6305579;28;20040;-77
2021/12/19 12:20:53;;;;;;;2.63;0.43;;;;;;;6.89;100.00;102326.03;6322185;28;20577;-77
2021/12/19 12:23:58;;;;;;;5.35;0.50;;;;;;;6.96;100.00;102302.41;6322184;28;20052;-77
2021/12/19 12:27:05;;;;;;;3.72;0.68;;;;;;;6.97;100.00;102308.50;6308546;28;20056;-76
2021/12/19 12:30:11;;;;;;;1.00;0.73;;;;;;;6.92;100.00;102305.09;6296555;28;20097;-76
2021/12/19 12:33:18;;;;;;;1.90;1.30;;;;;;;6.94;100.00;102293.72;6296903;28;20051;-76
2021/12/19 12:36:19;;;;;;;1.42;0.55;;;;;;;6.99;100.00;102288.41;6296819;28;20066;-76
2021/12/19 12:39:26;;;;;;;3.42;0.75;;;;;;;7.01;100.00;102282.31;6296435;28;20037;-76
2021/12/19 12:42:27;;;;;;;4.03;1.15;;;;;;;6.99;100.00;102281.44;6296658;28;20048;-76
2021/12/19 12:45:31;;;;;;;1.35;0.45;;;;;;;7.04;100.00;102282.28;6296685;28;20048;-76
2021/12/19 12:48:51;;;;;;;7.50;0.70;;;;;;;7.02;100.00;102285.78;6296448;28;20407;-76
2021/12/19 12:52:01;;;;;;;2.35;0.77;;;;;;;7.02;100.00;102297.09;6296581;28;20480;-76
2021/12/19 12:55:04;;;;;;;7.03;0.75;;;;;;;7.14;100.00;102280.38;6296351;28;20091;-76
2021/12/19 12:58:15;;;;;;;3.80;0.95;;;;;;;7.06;100.00;102271.78;6296928;28;20492;-76
2021/12/19 13:01:27;;;;;;;2.10;1.10;;;;;;;7.04;100.00;102266.59;6296496;28;20053;-76
2021/12/19 13:04:30;;;;;;;1.52;0.68;;;;;;;7.04;100.00;102284.00;6296785;28;20066;-77
2021/12/19 13:07:31;;;;;;;1.05;0.95;;;;;;;7.09;100.00;102267.38;6296025;28;20056;-75
2021/12/19 13:10:33;;;;;;;4.90;0.85;;;;;;;7.12;100.00;102266.44;6291401;28;20428;-75
2021/12/19 13:13:34;;;;;;;3.30;1.20;;;;;;;7.06;100.00;102272.63;6304601;28;20077;-75
2021/12/19 13:16:42;;;;;;;3.00;0.90;;;;;;;7.04;100.00;102278.75;6296072;28;20048;-75
2021/12/19 13:19:50;;;;;;;2.03;0.57;;;;;;;7.09;100.00;102275.22;6299460;28;20036;-76
2021/12/19 13:22:53;;;;;;;5.72;0.50;;;;;;;6.94;100.00;102259.72;6312857;28;20048;-76
2021/12/19 13:26:02;;;;;;;1.75;0.93;;;;;;;6.86;100.00;102261.63;6321359;28;20135;-76
2021/12/19 13:29:17;;;;;;;2.87;0.57;;;;;;;6.78;100.00;102258.22;6323500;28;20040;-77
2021/12/19 13:32:26;;;;;;;4.57;0.70;;;;;;;6.69;100.00;102263.56;6326343;28;20051;-76
2021/12/19 13:35:31;;;;;;;4.97;0.57;;;;;;;6.64;100.00;102252.34;6326518;28;20044;-76
2021/12/19 13:38:32;;;;;;;2.05;0.95;;;;;;;6.57;100.00;102251.53;6315005;28;20051;-76
2021/12/19 13:41:33;;;;;;;1.98;1.30;;;;;;;6.61;100.00;102248.84;6310321;28;20048;-76
2021/12/19 13:44:36;;;;;;;0.95;0.32;;;;;;;6.55;100.00;102235.03;6317426;28;20073;-76
2021/12/19 13:47:37;;;;;;;2.20;0.88;;;;;;;6.54;100.00;102228.03;6325962;28;20062;-76
2021/12/19 13:50:44;;;;;;;1.35;0.35;;;;;;;6.52;100.00;102233.31;6325968;28;20052;-76
2021/12/19 13:53:47;;;;;;;7.50;0.63;;;;;;;6.55;100.00;102233.28;6323488;28;20055;-76
2021/12/19 13:56:48;;;;;;;0.57;0.40;;;;;;;6.64;100.00;102237.50;6317249;28;20059;-77
2021/12/19 13:59:50;;;;;;;0.70;0.63;;;;;;;6.64;100.00;102226.22;6325344;28;20051;-76
2021/12/19 14:02:51;;;;;;;3.08;0.75;;;;;;;6.67;100.00;102231.38;6325666;28;20449;-70
2021/12/19 14:05:57;;;;;;;1.80;0.43;;;;;;;6.73;100.00;102245.22;6325542;28;20048;-75
2021/12/19 14:08:59;;;;;;;2.83;0.40;;;;;;;6.77;100.00;102230.38;6308581;28;20044;-74
2021/12/19 14:12:12;;;;;;;3.78;0.43;;;;;;;6.75;100.00;102224.31;6299836;28;20051;-74
2021/12/19 14:15:15;;;;;;;5.65;0.50;;;;;;;6.77;100.00;102210.34;6300030;28;20052;-74
2021/12/19 14:18:27;;;;;;;2.83;0.85;;;;;;;6.77;100.00;102214.72;6302697;28;20055;-75
2021/12/19 14:21:40;;;;;;;2.78;0.85;;;;;;;6.82;100.00;102215.50;6274981;28;20053;-74
2021/12/19 14:24:43;;;;;;;1.05;0.80;;;;;;;6.80;100.00;102225.09;6275037;28;20060;-74
2021/12/19 14:27:44;;;;;;;4.75;0.63;;;;;;;6.79;100.00;102216.41;6274980;28;20056;-75
2021/12/19 14:31:03;;;;;;;3.92;0.50;;;;;;;6.74;100.00;102219.97;6274430;28;20447;-75
2021/12/19 14:34:17;;;;;;;1.63;0.73;;;;;;;6.76;100.00;102219.03;6274868;28;20052;-74
2021/12/19 14:37:23;;;;;;;1.30;0.50;;;;;;;6.73;100.00;102200.81;6274519;28;20057;-75
2021/12/19 14:40:27;;;;;;;0.93;0.50;;;;;;;6.80;100.00;102197.22;6298062;28;20056;-75
2021/12/19 14:43:31;;;;;;;6.50;1.00;;;;;;;6.83;100.00;102189.34;6299540;28;20544;-74
2021/12/19 14:46:32;;;;;;;0.43;0.43;;;;;;;6.86;100.00;102204.13;6299446;28;20182;-75
2021/12/19 14:49:39;;;;;;;1.08;0.70;;;;;;;6.83;100.00;102202.41;6298987;28;20523;-74
2021/12/19 14:53:00;;;;;;;0.52;0.38;;;;;;;6.84;100.00;102184.97;6299186;28;20518;-75
2021/12/19 14:56:05;;;;;;;3.65;0.75;;;;;;;6.89;100.00;102185.78;6299043;28;20048;-75
2021/12/19 14:59:07;;;;;;;1.70;0.60;;;;;;;6.95;100.00;102192.66;6299066;28;20515;-75
2021/12/19 15:02:10;;;;;;;1.58;0.30;;;;;;;6.92;100.00;102206.66;6298696;28;20496;-75